»·PEaware :: DAL2371 KJFK-KLAS

DAL2371 :: KJFK-KLAS

FLIGHT INFORMATION

Flight Status: Arrived
Operator:
Delta Air Lines
More flights by this operator :: More flights under this callsign
Pilot: Diana T. (22608)
Aircraft: BOEING 757-200
(B752)
More flights by this aircraft type
Origin: KJFK Kennedy Intl
United States
Destination: KLAS Harry Reid Intl
United States
More flights between these airports :: More routes between these airports
Route: +RBV J230 LEJOY/N0462F360 J230 AIR J80 MCI J24 SLN DVC SINNN SITEE4
File this flight plan on PilotEdge
Remarks: RMK / SIMBRIEF
Altitude:
(Current/Filed)
34,000ft
Speed:
(Current/Filed)
468kts
Departed: 07-Aug-20 09:59 AM
Arrived: 07-Aug-20 03:11 PM
Distance/Time
Traveled:
1947nm/5:11
Distance/Time
To Go:
Arrived

Flight Plot

Page will automatically refresh every two minutes.

Flight plan parsing failed; only flown route is shown


Map Options




Map Legend


Flown Route
Filed Route
Departure Airport
Arrival Airport
Navaid (VOR, NDB)
Fix

Horizontal Profiles

Position Reports

Time Latitude Longitude Heading Altitude Ground
Speed
07-Aug-20 08:53 40.637349 -73.781679 83 25ft 0kts
07-Aug-20 08:54 40.637349 -73.781679 83 24ft 0kts
07-Aug-20 08:55 40.637349 -73.781679 83 24ft 0kts
07-Aug-20 08:56 40.637349 -73.781679 83 24ft 0kts
07-Aug-20 08:57 40.637349 -73.781679 83 24ft 0kts
07-Aug-20 08:58 40.637349 -73.781679 83 24ft 0kts
07-Aug-20 08:59 40.637349 -73.781679 83 24ft 0kts
07-Aug-20 09:00 40.637349 -73.781679 83 24ft 0kts
07-Aug-20 09:01 40.637349 -73.781679 83 24ft 0kts
07-Aug-20 09:02 40.637349 -73.781679 83 24ft 0kts
07-Aug-20 09:03 40.637349 -73.781679 83 24ft 0kts
07-Aug-20 09:04 40.637349 -73.781679 83 24ft 0kts
07-Aug-20 09:05 40.637349 -73.781679 83 24ft 0kts
07-Aug-20 09:06 40.637349 -73.781679 83 24ft 0kts
07-Aug-20 09:07 40.637349 -73.781679 83 24ft 0kts
07-Aug-20 09:08 40.637349 -73.781679 83 24ft 0kts
07-Aug-20 09:09 40.637349 -73.781679 83 24ft 0kts
07-Aug-20 09:10 40.637349 -73.781679 83 24ft 0kts
07-Aug-20 09:11 40.637349 -73.781679 83 24ft 0kts
07-Aug-20 09:12 40.637349 -73.781679 83 24ft 0kts
07-Aug-20 09:14 40.637349 -73.781679 83 24ft 0kts
07-Aug-20 09:15 40.637349 -73.781679 83 24ft 0kts
07-Aug-20 09:16 40.637349 -73.781679 83 24ft 0kts
07-Aug-20 09:17 40.637349 -73.781679 83 24ft 0kts
07-Aug-20 09:18 40.637349 -73.781679 83 24ft 0kts
07-Aug-20 09:19 40.637349 -73.781679 83 24ft 0kts
07-Aug-20 09:20 40.637349 -73.781679 83 24ft 0kts
07-Aug-20 09:21 40.637349 -73.781679 83 24ft 0kts
07-Aug-20 09:22 40.637349 -73.781679 83 24ft 0kts
07-Aug-20 09:23 40.637349 -73.781679 83 24ft 0kts
07-Aug-20 09:24 40.637349 -73.781679 83 24ft 0kts
07-Aug-20 09:25 40.637349 -73.781679 83 24ft 0kts
07-Aug-20 09:26 40.637349 -73.781679 83 24ft 0kts
07-Aug-20 09:27 40.637349 -73.781679 83 24ft 0kts
07-Aug-20 09:28 40.637349 -73.781679 83 24ft 0kts
07-Aug-20 09:29 40.637349 -73.781679 83 24ft 0kts
07-Aug-20 09:30 40.637349 -73.781679 83 24ft 0kts
07-Aug-20 09:31 40.637349 -73.781679 83 24ft 0kts
07-Aug-20 09:32 40.637349 -73.781679 83 24ft 0kts
07-Aug-20 09:32 40.637349 -73.781679 83 24ft 0kts
07-Aug-20 09:34 40.637349 -73.781679 83 24ft 0kts
07-Aug-20 09:34 40.637349 -73.781679 83 24ft 0kts
07-Aug-20 09:35 40.637349 -73.781679 83 24ft 0kts
07-Aug-20 09:37 40.637349 -73.781679 83 24ft 0kts
07-Aug-20 09:37 40.637349 -73.781679 83 24ft 0kts
07-Aug-20 09:38 40.637349 -73.781679 83 24ft 0kts
07-Aug-20 09:39 40.637349 -73.781679 83 24ft 0kts
07-Aug-20 09:40 40.637349 -73.781679 83 24ft 0kts
07-Aug-20 09:41 40.637349 -73.781679 83 24ft 0kts
07-Aug-20 09:42 40.637303 -73.782188 90 24ft 2kts
07-Aug-20 09:43 40.637598 -73.782743 159 24ft 2kts
07-Aug-20 09:44 40.637762 -73.782790 173 24ft 0kts
07-Aug-20 09:45 40.637762 -73.782790 173 24ft 0kts
07-Aug-20 09:46 40.637762 -73.782790 173 24ft 0kts
07-Aug-20 09:47 40.637762 -73.782790 173 24ft 0kts
07-Aug-20 09:48 40.636423 -73.782561 172 24ft 14kts
07-Aug-20 09:49 40.633672 -73.781440 119 24ft 15kts
07-Aug-20 09:50 40.631028 -73.780466 206 24ft 11kts
07-Aug-20 09:51 40.628343 -73.782526 210 24ft 13kts
07-Aug-20 09:52 40.625299 -73.784923 210 24ft 15kts
07-Aug-20 09:53 40.622733 -73.786663 151 24ft 0kts
07-Aug-20 09:54 40.622733 -73.786663 151 24ft 0kts
07-Aug-20 09:55 40.622733 -73.786663 151 24ft 0kts
07-Aug-20 09:56 40.622221 -73.785656 81 24ft 5kts
07-Aug-20 09:57 40.622781 -73.784994 30 24ft 0kts
07-Aug-20 09:58 40.630442 -73.779002 30 24ft 119kts
07-Aug-20 09:59 40.661946 -73.755246 28 1276ft 188kts
07-Aug-20 10:00 40.682195 -73.712281 84 2274ft 211kts
07-Aug-20 10:01 40.681006 -73.646438 119 3454ft 239kts
07-Aug-20 10:02 40.624917 -73.636466 223 5189ft 265kts
07-Aug-20 10:03 40.607444 -73.711263 261 7073ft 269kts
07-Aug-20 10:04 40.598572 -73.795284 259 8960ft 273kts
07-Aug-20 10:05 40.571395 -73.870244 235 10207ft 297kts
07-Aug-20 10:06 40.524135 -73.953987 232 10892ft 346kts
07-Aug-20 10:07 40.470721 -74.044701 232 12778ft 353kts
07-Aug-20 10:08 40.420864 -74.128855 232 14361ft 358kts
07-Aug-20 10:09 40.369209 -74.215768 232 15900ft 363kts
07-Aug-20 10:10 40.316306 -74.304515 232 17327ft 368kts
07-Aug-20 10:11 40.265527 -74.389472 232 18614ft 372kts
07-Aug-20 10:12 40.212087 -74.484538 244 19926ft 376kts
07-Aug-20 10:13 40.194759 -74.592646 262 21069ft 383kts
07-Aug-20 10:14 40.187090 -74.689173 262 22122ft 386kts
07-Aug-20 10:15 40.179913 -74.779196 262 23006ft 391kts
07-Aug-20 10:16 40.172333 -74.873515 262 23933ft 394kts
07-Aug-20 10:17 40.164288 -74.972601 261 24820ft 398kts
07-Aug-20 10:18 40.156635 -75.065880 261 25657ft 401kts
07-Aug-20 10:19 40.148279 -75.166658 261 26457ft 405kts
07-Aug-20 10:20 40.139286 -75.273912 261 27255ft 409kts
07-Aug-20 10:21 40.129089 -75.394131 261 28150ft 413kts
07-Aug-20 10:22 40.118887 -75.512894 261 28983ft 416kts
07-Aug-20 10:23 40.108012 -75.637966 261 29774ft 420kts
07-Aug-20 10:24 40.098329 -75.747958 260 30524ft 423kts
07-Aug-20 10:25 40.087726 -75.867103 260 31194ft 427kts
07-Aug-20 10:26 40.076595 -75.991023 260 32201ft 424kts
07-Aug-20 10:27 40.065723 -76.110617 259 33280ft 419kts
07-Aug-20 10:28 40.055920 -76.217212 259 34140ft 417kts
07-Aug-20 10:29 40.045029 -76.334330 259 34139ft 414kts
07-Aug-20 10:30 40.033389 -76.458029 259 34137ft 416kts
07-Aug-20 10:31 40.022247 -76.574896 259 34136ft 415kts
07-Aug-20 10:32 40.010651 -76.695073 259 34144ft 415kts
07-Aug-20 10:33 39.998173 -76.822917 259 34146ft 415kts
07-Aug-20 10:34 39.986087 -76.945398 259 34162ft 413kts
07-Aug-20 10:35 39.972107 -77.085412 259 34178ft 412kts
07-Aug-20 10:36 39.960207 -77.203316 259 34176ft 413kts
07-Aug-20 10:37 39.951347 -77.300624 265 34174ft 415kts
07-Aug-20 10:38 39.954603 -77.417004 268 34173ft 417kts
07-Aug-20 10:39 39.958977 -77.555539 268 34173ft 418kts
07-Aug-20 10:40 39.963099 -77.689487 268 34182ft 417kts
07-Aug-20 10:41 39.967045 -77.822336 268 34180ft 417kts
07-Aug-20 10:42 39.971440 -77.970088 268 34179ft 417kts
07-Aug-20 10:43 39.975737 -78.125929 268 34173ft 417kts
07-Aug-20 10:44 39.979769 -78.279542 268 34167ft 417kts
07-Aug-20 10:45 39.983608 -78.433588 268 34165ft 417kts
07-Aug-20 10:46 39.987064 -78.579899 268 34164ft 417kts
07-Aug-20 10:47 39.990289 -78.724308 268 34173ft 417kts
07-Aug-20 10:48 39.993319 -78.867728 268 34172ft 418kts
07-Aug-20 10:49 39.996287 -79.016991 268 34175ft 419kts
07-Aug-20 10:50 39.999031 -79.164577 268 34189ft 419kts
07-Aug-20 10:51 40.001606 -79.313507 268 34195ft 425kts
07-Aug-20 10:52 40.004000 -79.462302 269 34194ft 424kts
07-Aug-20 10:53 40.006200 -79.611727 269 34193ft 423kts
07-Aug-20 10:54 40.008063 -79.750583 268 34202ft 424kts
07-Aug-20 10:55 40.009890 -79.899647 268 35435ft 421kts
07-Aug-20 10:56 40.011537 -80.049636 268 36194ft 419kts
07-Aug-20 10:57 40.012825 -80.181660 268 36188ft 418kts
07-Aug-20 10:58 40.014003 -80.319207 268 36187ft 419kts
07-Aug-20 10:59 40.015038 -80.459960 269 36187ft 420kts
07-Aug-20 11:00 40.015916 -80.602322 269 36185ft 422kts
07-Aug-20 11:01 40.016538 -80.727996 269 36193ft 423kts
07-Aug-20 11:02 40.016410 -80.858233 268 36192ft 423kts
07-Aug-20 11:03 40.014556 -80.994500 268 36188ft 425kts
07-Aug-20 11:04 40.012586 -81.129514 268 36182ft 426kts
07-Aug-20 11:05 40.010377 -81.265192 268 36181ft 427kts
07-Aug-20 11:06 40.007664 -81.406399 269 36180ft 427kts
07-Aug-20 11:07 40.004738 -81.550626 269 36179ft 427kts
07-Aug-20 11:08 40.001980 -81.686346 268 36186ft 427kts
07-Aug-20 11:09 39.999058 -81.822114 268 36184ft 427kts
07-Aug-20 11:10 39.995896 -81.961349 268 36187ft 427kts
07-Aug-20 11:11 39.992671 -82.096452 268 36192ft 427kts
07-Aug-20 11:12 39.989007 -82.242514 268 36191ft 427kts
07-Aug-20 11:13 39.985300 -82.383348 268 36189ft 427kts
07-Aug-20 11:14 39.981312 -82.528051 268 36188ft 427kts
07-Aug-20 11:15 39.977366 -82.665171 268 36192ft 429kts
07-Aug-20 11:16 39.974229 -82.770208 268 36194ft 428kts
07-Aug-20 11:17 39.970638 -82.886854 268 36201ft 430kts
07-Aug-20 11:18 39.966510 -83.016528 268 36215ft 431kts
07-Aug-20 11:19 39.963637 -83.162208 269 36219ft 432kts
07-Aug-20 11:20 39.959011 -83.311654 268 36218ft 434kts
07-Aug-20 11:21 39.953839 -83.460767 269 36218ft 436kts
07-Aug-20 11:22 39.948475 -83.610083 269 36218ft 438kts
07-Aug-20 11:23 39.943507 -83.743567 268 36222ft 439kts
07-Aug-20 11:24 39.937809 -83.892019 268 36221ft 440kts
07-Aug-20 11:25 39.932144 -84.034963 268 36222ft 440kts
07-Aug-20 11:27 39.926297 -84.178018 268 36232ft 440kts
07-Aug-20 11:28 39.920192 -84.322908 268 36238ft 439kts
07-Aug-20 11:29 39.913850 -84.469248 268 36237ft 439kts
07-Aug-20 11:30 39.907313 -84.615726 268 36236ft 437kts
07-Aug-20 11:31 39.901299 -84.746696 268 36241ft 438kts
07-Aug-20 11:32 39.894901 -84.882689 268 36237ft 438kts
07-Aug-20 11:33 39.888563 -85.014149 268 36237ft 439kts
07-Aug-20 11:34 39.881490 -85.157305 268 36239ft 438kts
07-Aug-20 11:35 39.873751 -85.310009 268 36243ft 440kts
07-Aug-20 11:36 39.865870 -85.461523 268 36243ft 440kts
07-Aug-20 11:37 39.857681 -85.615153 268 36241ft 441kts
07-Aug-20 11:38 39.850204 -85.752204 268 36246ft 442kts
07-Aug-20 11:39 39.842708 -85.886671 268 36245ft 443kts
07-Aug-20 11:40 39.835650 -86.010751 268 36242ft 443kts
07-Aug-20 11:41 39.828783 -86.129301 268 36237ft 443kts
07-Aug-20 11:42 39.820863 -86.263392 268 36234ft 442kts
07-Aug-20 11:43 39.815488 -86.412525 274 36235ft 440kts
07-Aug-20 11:44 39.818750 -86.565628 274 36233ft 439kts
07-Aug-20 11:44 39.820842 -86.672224 273 36236ft 438kts
07-Aug-20 11:46 39.823978 -86.842184 273 36236ft 438kts
07-Aug-20 11:47 39.826925 -87.015933 273 36235ft 438kts
07-Aug-20 11:48 39.829440 -87.178065 274 36235ft 437kts
07-Aug-20 11:49 39.831787 -87.344659 274 36234ft 438kts
07-Aug-20 11:49 39.833586 -87.485501 274 36233ft 438kts
07-Aug-20 11:51 39.835573 -87.659979 274 36232ft 437kts
07-Aug-20 11:51 39.836903 -87.790740 274 36236ft 438kts
07-Aug-20 11:52 39.838318 -87.950186 274 36235ft 438kts
07-Aug-20 11:54 39.839845 -88.159738 274 36234ft 438kts
07-Aug-20 11:54 39.840665 -88.300631 274 36232ft 438kts
07-Aug-20 11:55 39.841552 -88.493174 274 36234ft 438kts
07-Aug-20 11:56 39.842028 -88.660320 273 36249ft 437kts
07-Aug-20 11:57 39.842199 -88.792321 273 36225ft 437kts
07-Aug-20 11:58 39.842254 -88.945061 273 36225ft 437kts
07-Aug-20 11:59 39.842079 -89.100797 274 36216ft 437kts
07-Aug-20 12:00 39.841702 -89.254787 274 36215ft 436kts
07-Aug-20 12:01 39.841110 -89.410537 274 36214ft 436kts
07-Aug-20 12:02 39.840233 -89.579352 274 36212ft 435kts
07-Aug-20 12:03 39.833561 -89.744509 268 36217ft 440kts
07-Aug-20 12:04 39.818868 -89.912896 268 36216ft 440kts
07-Aug-20 12:05 39.803838 -90.080311 268 36209ft 440kts
07-Aug-20 12:06 39.789644 -90.235779 268 36191ft 441kts
07-Aug-20 12:07 39.776917 -90.373152 268 36186ft 440kts
07-Aug-20 12:08 39.762942 -90.522037 267 36187ft 440kts
07-Aug-20 12:09 39.748719 -90.671397 267 36190ft 440kts
07-Aug-20 12:10 39.737120 -90.791779 266 36191ft 440kts
07-Aug-20 12:11 39.723551 -90.930860 266 36190ft 440kts
07-Aug-20 12:12 39.709695 -91.071156 266 36183ft 440kts
07-Aug-20 12:13 39.696205 -91.206558 266 36155ft 439kts
07-Aug-20 12:14 39.682271 -91.344817 265 36152ft 439kts
07-Aug-20 12:15 39.667234 -91.491891 265 36152ft 439kts
07-Aug-20 12:16 39.652523 -91.633608 265 36150ft 439kts
07-Aug-20 12:17 39.639073 -91.761707 264 36155ft 440kts
07-Aug-20 12:18 39.624323 -91.900576 264 36155ft 439kts
07-Aug-20 12:19 39.608389 -92.048878 264 36144ft 439kts
07-Aug-20 12:20 39.592554 -92.194390 264 36131ft 439kts
07-Aug-20 12:21 39.576556 -92.339705 264 36131ft 440kts
07-Aug-20 12:22 39.560458 -92.484237 264 36131ft 439kts
07-Aug-20 12:23 39.543358 -92.635981 264 36132ft 440kts
07-Aug-20 12:24 39.528356 -92.767619 263 36137ft 440kts
07-Aug-20 12:25 39.512239 -92.907530 263 36137ft 439kts
07-Aug-20 12:26 39.494732 -93.057837 263 36124ft 440kts
07-Aug-20 12:27 39.477639 -93.202944 262 36118ft 441kts
07-Aug-20 12:28 39.460165 -93.349582 262 36117ft 441kts
07-Aug-20 12:29 39.442048 -93.499851 262 36116ft 440kts
07-Aug-20 12:30 39.424547 -93.643445 262 36115ft 440kts
07-Aug-20 12:31 39.409017 -93.769597 262 36120ft 440kts
07-Aug-20 12:32 39.392522 -93.902354 262 36112ft 440kts
07-Aug-20 12:33 39.375641 -94.037019 261 36085ft 441kts
07-Aug-20 12:34 39.360387 -94.157432 261 36072ft 441kts
07-Aug-20 12:35 39.342317 -94.298832 261 36071ft 440kts
07-Aug-20 12:36 39.325006 -94.432996 261 36071ft 441kts
07-Aug-20 12:37 39.307790 -94.565190 261 36070ft 441kts
07-Aug-20 12:38 39.290696 -94.695259 260 36074ft 441kts
07-Aug-20 12:39 39.276063 -94.817979 261 36073ft 440kts
07-Aug-20 12:40 39.260304 -94.957250 261 36057ft 440kts
07-Aug-20 12:41 39.243988 -95.099740 261 36044ft 441kts
07-Aug-20 12:42 39.227537 -95.241806 261 36044ft 441kts
07-Aug-20 12:43 39.211062 -95.382546 261 36034ft 441kts
07-Aug-20 12:44 39.192548 -95.538930 260 36033ft 441kts
07-Aug-20 12:45 39.176112 -95.676224 260 36036ft 441kts
07-Aug-20 12:46 39.158877 -95.818686 260 36036ft 441kts
07-Aug-20 12:47 39.140314 -95.970485 260 36035ft 441kts
07-Aug-20 12:48 39.121819 -96.120108 259 36024ft 444kts
07-Aug-20 12:49 39.102685 -96.273175 260 36007ft 444kts
07-Aug-20 12:50 39.083795 -96.422698 260 36006ft 444kts
07-Aug-20 12:51 39.065266 -96.567829 260 36005ft 444kts
07-Aug-20 12:52 39.047580 -96.704960 259 36009ft 444kts
07-Aug-20 12:53 39.028720 -96.849781 259 36009ft 444kts
07-Aug-20 12:54 39.009546 -96.995512 259 36008ft 444kts
07-Aug-20 12:55 38.990147 -97.141499 259 35984ft 445kts
07-Aug-20 12:56 38.970296 -97.289410 259 35970ft 445kts
07-Aug-20 12:57 38.949938 -97.439583 259 35969ft 445kts
07-Aug-20 12:58 38.928346 -97.597232 259 35969ft 445kts
07-Aug-20 12:59 38.910385 -97.741880 260 35972ft 445kts
07-Aug-20 13:00 38.893368 -97.880877 260 35973ft 445kts
07-Aug-20 13:01 38.875607 -98.024384 260 35969ft 445kts
07-Aug-20 13:02 38.856534 -98.176892 260 35963ft 445kts
07-Aug-20 13:03 38.836048 -98.338855 260 35962ft 445kts
07-Aug-20 13:04 38.813820 -98.512505 260 35961ft 445kts
07-Aug-20 13:05 38.792443 -98.677543 260 35964ft 446kts
07-Aug-20 13:06 38.771855 -98.834771 260 35964ft 445kts
07-Aug-20 13:07 38.747676 -99.017256 260 35967ft 446kts
07-Aug-20 13:08 38.723018 -99.201061 260 35972ft 446kts
07-Aug-20 13:09 38.697437 -99.389399 260 35971ft 447kts
07-Aug-20 13:10 38.671316 -99.579300 260 35970ft 447kts
07-Aug-20 13:11 38.645605 -99.763976 259 35973ft 447kts
07-Aug-20 13:12 38.619619 -99.948404 259 35979ft 447kts
07-Aug-20 13:13 38.592762 -100.136737 260 35990ft 446kts
07-Aug-20 13:14 38.572998 -100.332792 267 35990ft 446kts
07-Aug-20 13:15 38.564520 -100.511254 266 35988ft 445kts
07-Aug-20 13:16 38.554737 -100.693771 265 35992ft 445kts
07-Aug-20 13:17 38.545006 -100.868899 265 35993ft 444kts
07-Aug-20 13:18 38.535979 -101.027150 265 35998ft 443kts
07-Aug-20 13:19 38.526264 -101.193370 265 35999ft 443kts
07-Aug-20 13:20 38.515619 -101.371007 265 35997ft 442kts
07-Aug-20 13:21 38.503795 -101.563228 265 35996ft 442kts
07-Aug-20 13:22 38.492442 -101.743102 265 35999ft 442kts
07-Aug-20 13:23 38.479882 -101.937145 265 35999ft 442kts
07-Aug-20 13:24 38.468153 -102.114002 264 36012ft 442kts
07-Aug-20 13:25 38.457264 -102.274659 264 36033ft 441kts
07-Aug-20 13:26 38.444906 -102.453140 264 36033ft 441kts
07-Aug-20 13:27 38.431418 -102.643528 264 36032ft 440kts
07-Aug-20 13:28 38.419606 -102.806756 264 36036ft 440kts
07-Aug-20 13:29 38.408024 -102.963798 263 36035ft 439kts
07-Aug-20 13:30 38.394938 -103.137762 263 36055ft 438kts
07-Aug-20 13:32 38.381136 -103.317678 263 36069ft 446kts
07-Aug-20 13:33 38.367651 -103.490165 263 36064ft 445kts
07-Aug-20 13:34 38.353352 -103.669346 263 35492ft 438kts
07-Aug-20 13:35 38.340883 -103.822745 262 34070ft 455kts
07-Aug-20 13:36 38.328313 -103.974936 263 34073ft 456kts
07-Aug-20 13:37 38.316117 -104.120444 262 34094ft 455kts
07-Aug-20 13:38 38.301939 -104.286980 262 34095ft 455kts
07-Aug-20 13:39 38.288429 -104.442970 262 34087ft 454kts
07-Aug-20 13:40 38.275001 -104.595700 262 34077ft 453kts
07-Aug-20 13:41 38.264121 -104.717764 262 34073ft 452kts
07-Aug-20 13:42 38.253832 -104.831897 262 34065ft 451kts
07-Aug-20 13:43 38.243415 -104.946194 262 34098ft 450kts
07-Aug-20 13:44 38.232579 -105.063775 262 34207ft 450kts
07-Aug-20 13:45 38.221271 -105.185127 262 34281ft 447kts
07-Aug-20 13:46 38.209594 -105.309001 262 34280ft 447kts
07-Aug-20 13:47 38.195519 -105.456467 262 34280ft 447kts
07-Aug-20 13:48 38.182561 -105.590511 262 34279ft 447kts
07-Aug-20 13:48 38.173153 -105.686642 261 34285ft 447kts
07-Aug-20 13:50 38.160006 -105.820007 261 34283ft 447kts
07-Aug-20 13:51 38.147422 -105.945995 261 34300ft 447kts
07-Aug-20 13:51 38.137040 -106.049075 261 34325ft 447kts
07-Aug-20 13:52 38.124361 -106.173589 261 34337ft 447kts
07-Aug-20 13:54 38.110101 -106.312068 261 34335ft 447kts
07-Aug-20 13:54 38.098081 -106.427572 261 34335ft 446kts
07-Aug-20 13:55 38.084493 -106.556777 261 34333ft 447kts
07-Aug-20 13:56 38.070401 -106.689336 260 34338ft 446kts
07-Aug-20 13:57 38.058707 -106.798213 260 34337ft 446kts
07-Aug-20 13:58 38.047044 -106.905884 260 34391ft 445kts
07-Aug-20 13:59 38.035726 -107.009481 260 34457ft 445kts
07-Aug-20 14:00 38.023862 -107.117186 260 34490ft 444kts
07-Aug-20 14:01 38.011555 -107.227915 260 34490ft 444kts
07-Aug-20 14:02 38.000156 -107.329625 260 34489ft 444kts
07-Aug-20 14:03 37.988605 -107.431956 260 34489ft 445kts
07-Aug-20 14:04 37.977176 -107.532222 260 34487ft 444kts
07-Aug-20 14:05 37.965527 -107.633797 260 34487ft 443kts
07-Aug-20 14:06 37.954342 -107.730441 259 34493ft 444kts
07-Aug-20 14:07 37.942827 -107.829307 259 34493ft 444kts
07-Aug-20 14:08 37.930320 -107.935885 259 34491ft 444kts
07-Aug-20 14:09 37.916063 -108.056250 259 34473ft 444kts
07-Aug-20 14:10 37.900466 -108.186673 259 34389ft 444kts
07-Aug-20 14:11 37.886263 -108.304430 259 34346ft 444kts
07-Aug-20 14:12 37.870863 -108.431065 259 34334ft 444kts
07-Aug-20 14:13 37.856058 -108.551586 259 34322ft 444kts
07-Aug-20 14:14 37.839303 -108.686755 258 34316ft 444kts
07-Aug-20 14:15 37.824483 -108.805301 258 34305ft 443kts
07-Aug-20 14:16 37.802829 -108.949257 251 34293ft 438kts
07-Aug-20 14:17 37.768224 -109.094066 251 34281ft 437kts
07-Aug-20 14:18 37.732647 -109.238140 250 34302ft 436kts
07-Aug-20 14:19 37.695998 -109.385035 250 34300ft 436kts
07-Aug-20 14:20 37.658681 -109.533621 250 34299ft 435kts
07-Aug-20 14:21 37.619329 -109.689346 249 34305ft 435kts
07-Aug-20 14:22 37.587132 -109.816039 249 34303ft 434kts
07-Aug-20 14:23 37.557054 -109.933812 249 34302ft 434kts
07-Aug-20 14:24 37.525839 -110.055477 249 34248ft 434kts
07-Aug-20 14:25 37.493161 -110.182169 249 34192ft 435kts
07-Aug-20 14:26 37.459048 -110.313789 249 34189ft 435kts
07-Aug-20 14:27 37.422140 -110.455424 249 34188ft 435kts
07-Aug-20 14:28 37.384334 -110.599691 249 34187ft 435kts
07-Aug-20 14:29 37.350530 -110.727998 249 34192ft 435kts
07-Aug-20 14:30 37.320367 -110.841946 249 34191ft 435kts
07-Aug-20 14:31 37.286570 -110.969039 249 34196ft 435kts
07-Aug-20 14:32 37.252354 -111.097071 249 34171ft 435kts
07-Aug-20 14:33 37.216178 -111.231745 249 34145ft 435kts
07-Aug-20 14:34 37.180523 -111.363809 249 34117ft 435kts
07-Aug-20 14:35 37.144610 -111.496171 249 34090ft 436kts
07-Aug-20 14:36 37.108549 -111.628393 249 34066ft 435kts
07-Aug-20 14:37 37.076037 -111.747011 248 34071ft 434kts
07-Aug-20 14:38 37.047539 -111.860989 257 34073ft 436kts
07-Aug-20 14:39 37.030671 -111.991227 257 34114ft 436kts
07-Aug-20 14:40 37.012191 -112.132373 257 34151ft 436kts
07-Aug-20 14:41 36.994931 -112.263042 257 34150ft 435kts
07-Aug-20 14:42 36.977246 -112.395776 257 34149ft 435kts
07-Aug-20 14:43 36.958202 -112.537863 258 34148ft 436kts
07-Aug-20 14:44 36.940339 -112.670301 257 34152ft 436kts
07-Aug-20 14:45 36.922725 -112.799730 257 34152ft 436kts
07-Aug-20 14:46 36.904245 -112.934464 257 32492ft 428kts
07-Aug-20 14:47 36.885672 -113.068496 257 30679ft 440kts
07-Aug-20 14:48 36.867720 -113.197040 258 28941ft 441kts
07-Aug-20 14:49 36.846470 -113.347976 258 26928ft 431kts
07-Aug-20 14:50 36.824346 -113.503541 258 24882ft 422kts
07-Aug-20 14:51 36.773904 -113.643250 240 22899ft 410kts
07-Aug-20 14:52 36.721218 -113.761640 239 21155ft 399kts
07-Aug-20 14:53 36.677363 -113.859184 239 19715ft 389kts
07-Aug-20 14:54 36.620851 -113.984353 239 17904ft 379kts
07-Aug-20 14:55 36.564370 -114.106638 236 16118ft 371kts
07-Aug-20 14:56 36.502345 -114.227751 236 14340ft 364kts
07-Aug-20 14:57 36.445255 -114.339134 235 12702ft 357kts
07-Aug-20 14:58 36.387106 -114.452338 235 11990ft 303kts
07-Aug-20 14:59 36.335598 -114.552380 235 10900ft 292kts
07-Aug-20 15:00 36.278311 -114.635580 202 9891ft 272kts
07-Aug-20 15:01 36.211402 -114.667409 198 9457ft 272kts
07-Aug-20 15:02 36.138693 -114.699096 198 8241ft 278kts
07-Aug-20 15:03 36.075958 -114.743555 249 7997ft 239kts
07-Aug-20 15:04 36.073552 -114.824120 267 7999ft 245kts
07-Aug-20 15:05 36.073524 -114.907361 268 6497ft 258kts
07-Aug-20 15:06 36.073596 -114.981770 267 5131ft 232kts
07-Aug-20 15:07 36.073405 -115.045093 269 3902ft 212kts
07-Aug-20 15:08 36.073786 -115.097701 270 2778ft 163kts
07-Aug-20 15:09 36.073698 -115.136228 269 2190ft 114kts
07-Aug-20 15:10 36.074519 -115.145410 299 2190ft 0kts
07-Aug-20 15:11 36.075045 -115.146356 319 2190ft 8kts
07-Aug-20 15:12 36.076928 -115.146538 0 2190ft 17kts
07-Aug-20 15:13 36.077505 -115.146539 345 2190ft 2kts
07-Aug-20 15:14 36.078429 -115.146794 66 2190ft 8kts
07-Aug-20 15:15 36.078379 -115.144564 93 2190ft 7kts
07-Aug-20 15:16 36.078287 -115.141056 89 2190ft 17kts
07-Aug-20 15:17 36.079524 -115.138722 40 2190ft 11kts
07-Aug-20 15:18 36.080398 -115.138771 345 2190ft 0kts
07-Aug-20 15:19 36.080438 -115.138785 344 2190ft 0kts
07-Aug-20 15:20 36.080438 -115.138785 344 2190ft 0kts
07-Aug-20 15:21 36.080438 -115.138785 344 2190ft 0kts
07-Aug-20 15:22 36.080438 -115.138785 344 2190ft 0kts

Navigation Log

Ident Type
Flight plan parsing failed, navigation log unavailable